sensor_id;sensor_type;location;lat;lon;timestamp;temperature;humidity
13093;DHT22;6612;49.568;11.000;2023-05-28T00:00:32;16.60;38.90
13093;DHT22;6612;49.568;11.000;2023-05-28T00:02:59;16.60;39.10
13093;DHT22;6612;49.568;11.000;2023-05-28T00:05:26;16.50;39.20
13093;DHT22;6612;49.568;11.000;2023-05-28T00:07:54;16.50;39.30
13093;DHT22;6612;49.568;11.000;2023-05-28T00:10:26;16.50;39.70
13093;DHT22;6612;49.568;11.000;2023-05-28T00:12:53;16.40;39.50
13093;DHT22;6612;49.568;11.000;2023-05-28T00:15:20;16.40;39.60
13093;DHT22;6612;49.568;11.000;2023-05-28T00:17:47;16.40;39.80
13093;DHT22;6612;49.568;11.000;2023-05-28T00:20:18;16.30;39.90
13093;DHT22;6612;49.568;11.000;2023-05-28T00:22:45;16.30;40.10
13093;DHT22;6612;49.568;11.000;2023-05-28T00:25:14;16.20;40.10
13093;DHT22;6612;49.568;11.000;2023-05-28T00:27:41;16.20;40.50
13093;DHT22;6612;49.568;11.000;2023-05-28T00:30:08;16.20;40.50
13093;DHT22;6612;49.568;11.000;2023-05-28T00:32:35;16.20;40.60
13093;DHT22;6612;49.568;11.000;2023-05-28T00:35:03;16.10;40.70
13093;DHT22;6612;49.568;11.000;2023-05-28T00:37:30;16.10;41.60
13093;DHT22;6612;49.568;11.000;2023-05-28T00:39:57;16.00;41.50
13093;DHT22;6612;49.568;11.000;2023-05-28T00:42:25;16.00;41.00
13093;DHT22;6612;49.568;11.000;2023-05-28T00:44:52;16.00;41.10
13093;DHT22;6612;49.568;11.000;2023-05-28T00:47:19;16.00;41.00
13093;DHT22;6612;49.568;11.000;2023-05-28T00:49:47;15.90;41.10
13093;DHT22;6612;49.568;11.000;2023-05-28T00:52:14;15.90;41.20
13093;DHT22;6612;49.568;11.000;2023-05-28T00:54:42;15.90;41.40
13093;DHT22;6612;49.568;11.000;2023-05-28T00:57:09;15.80;41.40
13093;DHT22;6612;49.568;11.000;2023-05-28T00:59:37;15.80;41.60
13093;DHT22;6612;49.568;11.000;2023-05-28T01:02:05;15.80;41.80
13093;DHT22;6612;49.568;11.000;2023-05-28T01:04:32;15.70;41.70
13093;DHT22;6612;49.568;11.000;2023-05-28T01:07:00;15.70;41.80
13093;DHT22;6612;49.568;11.000;2023-05-28T01:09:28;15.70;41.90
13093;DHT22;6612;49.568;11.000;2023-05-28T01:11:55;15.70;42.00
13093;DHT22;6612;49.568;11.000;2023-05-28T01:14:23;15.60;42.00
13093;DHT22;6612;49.568;11.000;2023-05-28T01:16:52;15.60;42.20
13093;DHT22;6612;49.568;11.000;2023-05-28T01:19:23;15.50;42.30
13093;DHT22;6612;49.568;11.000;2023-05-28T01:21:56;15.60;42.70
13093;DHT22;6612;49.568;11.000;2023-05-28T01:24:28;15.50;42.70
13093;DHT22;6612;49.568;11.000;2023-05-28T01:26:56;15.50;42.60
13093;DHT22;6612;49.568;11.000;2023-05-28T01:29:24;15.40;42.50
13093;DHT22;6612;49.568;11.000;2023-05-28T01:31:51;15.40;42.60
13093;DHT22;6612;49.568;11.000;2023-05-28T01:34:18;15.40;42.70
13093;DHT22;6612;49.568;11.000;2023-05-28T01:36:51;15.40;42.80
13093;DHT22;6612;49.568;11.000;2023-05-28T01:39:24;15.30;42.90
13093;DHT22;6612;49.568;11.000;2023-05-28T01:41:54;15.30;43.00
13093;DHT22;6612;49.568;11.000;2023-05-28T01:44:22;15.30;43.30
13093;DHT22;6612;49.568;11.000;2023-05-28T01:46:51;15.20;43.00
13093;DHT22;6612;49.568;11.000;2023-05-28T01:49:22;15.20;43.10
13093;DHT22;6612;49.568;11.000;2023-05-28T01:51:50;15.20;43.50
13093;DHT22;6612;49.568;11.000;2023-05-28T01:54:18;15.20;43.30
13093;DHT22;6612;49.568;11.000;2023-05-28T01:56:46;15.10;43.40
13093;DHT22;6612;49.568;11.000;2023-05-28T01:59:14;15.10;43.50
13093;DHT22;6612;49.568;11.000;2023-05-28T02:01:42;15.10;43.70
13093;DHT22;6612;49.568;11.000;2023-05-28T02:04:09;15.00;43.50
13093;DHT22;6612;49.568;11.000;2023-05-28T02:06:36;15.00;43.60
13093;DHT22;6612;49.568;11.000;2023-05-28T02:09:06;15.00;43.70
13093;DHT22;6612;49.568;11.000;2023-05-28T02:11:33;14.90;43.60
13093;DHT22;6612;49.568;11.000;2023-05-28T02:14:01;14.90;43.70
13093;DHT22;6612;49.568;11.000;2023-05-28T02:16:31;14.90;43.80
13093;DHT22;6612;49.568;11.000;2023-05-28T02:18:58;14.90;44.00
13093;DHT22;6612;49.568;11.000;2023-05-28T02:21:26;14.80;44.50
13093;DHT22;6612;49.568;11.000;2023-05-28T02:23:54;14.80;44.00
13093;DHT22;6612;49.568;11.000;2023-05-28T02:26:22;14.80;44.00
13093;DHT22;6612;49.568;11.000;2023-05-28T02:28:49;14.80;44.10
13093;DHT22;6612;49.568;11.000;2023-05-28T02:31:16;14.70;44.20
13093;DHT22;6612;49.568;11.000;2023-05-28T02:33:45;14.70;44.30
13093;DHT22;6612;49.568;11.000;2023-05-28T02:36:12;14.70;44.50
13093;DHT22;6612;49.568;11.000;2023-05-28T02:38:40;14.60;44.30
13093;DHT22;6612;49.568;11.000;2023-05-28T02:41:08;14.60;44.50
13093;DHT22;6612;49.568;11.000;2023-05-28T02:43:35;14.60;44.50
13093;DHT22;6612;49.568;11.000;2023-05-28T02:46:03;14.60;44.60
13093;DHT22;6612;49.568;11.000;2023-05-28T02:48:30;14.50;44.60
13093;DHT22;6612;49.568;11.000;2023-05-28T02:50:59;14.50;44.60
13093;DHT22;6612;49.568;11.000;2023-05-28T02:53:29;14.50;44.80
13093;DHT22;6612;49.568;11.000;2023-05-28T02:55:57;14.50;45.00
13093;DHT22;6612;49.568;11.000;2023-05-28T02:58:24;14.40;44.70
13093;DHT22;6612;49.568;11.000;2023-05-28T03:00:52;14.40;44.90
13093;DHT22;6612;49.568;11.000;2023-05-28T03:03:19;14.40;44.90
13093;DHT22;6612;49.568;11.000;2023-05-28T03:05:47;14.30;44.90
13093;DHT22;6612;49.568;11.000;2023-05-28T03:08:16;14.30;45.00
13093;DHT22;6612;49.568;11.000;2023-05-28T03:21:44;14.30;45.80
13093;DHT22;6612;49.568;11.000;2023-05-28T04:44:01;16.40;48.50
13093;DHT22;6612;49.568;11.000;2023-05-28T04:46:29;16.70;48.00
13093;DHT22;6612;49.568;11.000;2023-05-28T04:48:56;17.10;48.20
13093;DHT22;6612;49.568;11.000;2023-05-28T04:51:23;17.40;48.40
13093;DHT22;6612;49.568;11.000;2023-05-28T04:53:50;17.80;48.50
13093;DHT22;6612;49.568;11.000;2023-05-28T04:56:17;18.30;48.60
13093;DHT22;6612;49.568;11.000;2023-05-28T04:58:45;18.70;48.20
13093;DHT22;6612;49.568;11.000;2023-05-28T05:01:14;19.00;47.80
13093;DHT22;6612;49.568;11.000;2023-05-28T05:03:42;19.40;47.40
13093;DHT22;6612;49.568;11.000;2023-05-28T05:06:09;19.60;46.90
13093;DHT22;6612;49.568;11.000;2023-05-28T05:08:36;19.90;46.80
13093;DHT22;6612;49.568;11.000;2023-05-28T05:11:03;20.20;46.80
13093;DHT22;6612;49.568;11.000;2023-05-28T05:13:32;20.60;46.90
13093;DHT22;6612;49.568;11.000;2023-05-28T05:15:59;21.00;47.10
13093;DHT22;6612;49.568;11.000;2023-05-28T05:18:27;21.50;47.20
13093;DHT22;6612;49.568;11.000;2023-05-28T05:20:54;22.00;46.70
13093;DHT22;6612;49.568;11.000;2023-05-28T05:23:23;22.60;46.30
13093;DHT22;6612;49.568;11.000;2023-05-28T05:25:50;23.10;45.50
13093;DHT22;6612;49.568;11.000;2023-05-28T05:28:17;23.60;45.00
13093;DHT22;6612;49.568;11.000;2023-05-28T05:30:44;24.20;44.60
13093;DHT22;6612;49.568;11.000;2023-05-28T05:33:11;24.70;44.10
13093;DHT22;6612;49.568;11.000;2023-05-28T05:35:39;25.30;43.50
13093;DHT22;6612;49.568;11.000;2023-05-28T05:38:06;25.80;42.80
13093;DHT22;6612;49.568;11.000;2023-05-28T05:40:33;26.40;42.40
13093;DHT22;6612;49.568;11.000;2023-05-28T05:43:00;26.80;41.10
13093;DHT22;6612;49.568;11.000;2023-05-28T05:45:27;27.20;40.10
13093;DHT22;6612;49.568;11.000;2023-05-28T05:47:54;27.60;40.00
13093;DHT22;6612;49.568;11.000;2023-05-28T05:50:22;28.00;38.80
13093;DHT22;6612;49.568;11.000;2023-05-28T05:52:50;28.30;39.00
13093;DHT22;6612;49.568;11.000;2023-05-28T05:55:17;28.90;37.60
13093;DHT22;6612;49.568;11.000;2023-05-28T05:57:44;29.40;37.00
13093;DHT22;6612;49.568;11.000;2023-05-28T06:00:13;29.80;36.20
13093;DHT22;6612;49.568;11.000;2023-05-28T06:02:40;30.20;35.40
13093;DHT22;6612;49.568;11.000;2023-05-28T06:05:08;30.70;34.80
13093;DHT22;6612;49.568;11.000;2023-05-28T06:07:35;31.10;34.00
13093;DHT22;6612;49.568;11.000;2023-05-28T06:10:04;31.50;33.40
13093;DHT22;6612;49.568;11.000;2023-05-28T06:12:31;31.90;32.40
13093;DHT22;6612;49.568;11.000;2023-05-28T06:14:58;32.30;31.80
13093;DHT22;6612;49.568;11.000;2023-05-28T06:17:25;32.60;31.60
13093;DHT22;6612;49.568;11.000;2023-05-28T06:19:52;33.00;31.20
13093;DHT22;6612;49.568;11.000;2023-05-28T06:22:19;33.30;30.50
13093;DHT22;6612;49.568;11.000;2023-05-28T06:24:46;33.60;29.70
13093;DHT22;6612;49.568;11.000;2023-05-28T06:27:16;33.90;29.20
13093;DHT22;6612;49.568;11.000;2023-05-28T06:29:43;34.10;28.70
13093;DHT22;6612;49.568;11.000;2023-05-28T06:32:11;34.30;28.50
13093;DHT22;6612;49.568;11.000;2023-05-28T06:34:38;34.50;28.20
13093;DHT22;6612;49.568;11.000;2023-05-28T06:37:06;34.80;27.80
13093;DHT22;6612;49.568;11.000;2023-05-28T06:39:33;35.00;27.70
13093;DHT22;6612;49.568;11.000;2023-05-28T06:42:00;35.30;27.30
13093;DHT22;6612;49.568;11.000;2023-05-28T06:44:29;35.60;27.00
13093;DHT22;6612;49.568;11.000;2023-05-28T06:46:56;35.80;26.30
13093;DHT22;6612;49.568;11.000;2023-05-28T06:49:23;36.00;25.90
13093;DHT22;6612;49.568;11.000;2023-05-28T06:51:50;36.20;25.80
13093;DHT22;6612;49.568;11.000;2023-05-28T06:54:17;36.40;25.40
13093;DHT22;6612;49.568;11.000;2023-05-28T06:56:44;36.50;25.10
13093;DHT22;6612;49.568;11.000;2023-05-28T06:59:11;36.60;24.70
13093;DHT22;6612;49.568;11.000;2023-05-28T07:01:39;36.70;24.30
13093;DHT22;6612;49.568;11.000;2023-05-28T07:04:06;36.70;24.20
13093;DHT22;6612;49.568;11.000;2023-05-28T07:06:33;36.80;23.90
13093;DHT22;6612;49.568;11.000;2023-05-28T07:09:00;36.60;23.40
13093;DHT22;6612;49.568;11.000;2023-05-28T07:11:27;36.40;22.90
13093;DHT22;6612;49.568;11.000;2023-05-28T07:13:54;36.00;22.80
13093;DHT22;6612;49.568;11.000;2023-05-28T07:16:22;35.60;22.90
13093;DHT22;6612;49.568;11.000;2023-05-28T07:18:50;35.00;22.60
13093;DHT22;6612;49.568;11.000;2023-05-28T07:21:17;34.50;22.50
13093;DHT22;6612;49.568;11.000;2023-05-28T07:23:44;33.90;22.80
13093;DHT22;6612;49.568;11.000;2023-05-28T07:26:11;33.40;23.10
13093;DHT22;6612;49.568;11.000;2023-05-28T07:28:38;32.90;23.50
13093;DHT22;6612;49.568;11.000;2023-05-28T07:31:05;32.50;23.80
13093;DHT22;6612;49.568;11.000;2023-05-28T07:33:32;32.10;24.10
13093;DHT22;6612;49.568;11.000;2023-05-28T07:36:01;31.80;24.40
13093;DHT22;6612;49.568;11.000;2023-05-28T07:38:28;31.50;24.60
13093;DHT22;6612;49.568;11.000;2023-05-28T07:40:55;31.20;24.80
13093;DHT22;6612;49.568;11.000;2023-05-28T07:43:22;30.90;25.00
13093;DHT22;6612;49.568;11.000;2023-05-28T07:45:49;30.60;25.00
13093;DHT22;6612;49.568;11.000;2023-05-28T07:48:16;30.40;25.00
13093;DHT22;6612;49.568;11.000;2023-05-28T07:50:43;30.20;25.40
13093;DHT22;6612;49.568;11.000;2023-05-28T07:53:11;29.90;25.70
13093;DHT22;6612;49.568;11.000;2023-05-28T07:55:38;29.80;26.00
13093;DHT22;6612;49.568;11.000;2023-05-28T07:58:05;29.60;26.40
13093;DHT22;6612;49.568;11.000;2023-05-28T08:00:33;29.50;26.90
13093;DHT22;6612;49.568;11.000;2023-05-28T08:03:02;29.50;26.90
13093;DHT22;6612;49.568;11.000;2023-05-28T08:05:29;29.50;27.10
13093;DHT22;6612;49.568;11.000;2023-05-28T08:07:56;29.40;27.10
13093;DHT22;6612;49.568;11.000;2023-05-28T08:10:25;29.40;27.10
13093;DHT22;6612;49.568;11.000;2023-05-28T08:12:52;29.40;27.10
13093;DHT22;6612;49.568;11.000;2023-05-28T08:15:19;29.40;27.10
13093;DHT22;6612;49.568;11.000;2023-05-28T08:17:46;29.30;27.50
13093;DHT22;6612;49.568;11.000;2023-05-28T08:20:13;29.30;27.40
13093;DHT22;6612;49.568;11.000;2023-05-28T08:22:40;29.30;27.50
13093;DHT22;6612;49.568;11.000;2023-05-28T08:25:08;29.30;27.60
13093;DHT22;6612;49.568;11.000;2023-05-28T08:27:37;29.20;27.50
13093;DHT22;6612;49.568;11.000;2023-05-28T08:30:05;29.20;27.70
13093;DHT22;6612;49.568;11.000;2023-05-28T08:32:32;29.20;27.80
13093;DHT22;6612;49.568;11.000;2023-05-28T08:34:59;29.20;27.90
13093;DHT22;6612;49.568;11.000;2023-05-28T08:37:26;29.20;28.10
13093;DHT22;6612;49.568;11.000;2023-05-28T08:39:53;29.20;28.20
13093;DHT22;6612;49.568;11.000;2023-05-28T08:42:20;29.20;28.40
13093;DHT22;6612;49.568;11.000;2023-05-28T08:44:49;29.20;28.00
13093;DHT22;6612;49.568;11.000;2023-05-28T08:47:16;29.20;27.50
13093;DHT22;6612;49.568;11.000;2023-05-28T08:49:50;29.10;27.50
13093;DHT22;6612;49.568;11.000;2023-05-28T08:52:19;29.00;27.50
13093;DHT22;6612;49.568;11.000;2023-05-28T08:54:46;29.00;27.80
13093;DHT22;6612;49.568;11.000;2023-05-28T08:57:13;28.90;27.10
13093;DHT22;6612;49.568;11.000;2023-05-28T08:59:41;28.80;26.50
13093;DHT22;6612;49.568;11.000;2023-05-28T09:02:09;28.70;26.20
13093;DHT22;6612;49.568;11.000;2023-05-28T09:04:37;28.60;26.30
13093;DHT22;6612;49.568;11.000;2023-05-28T09:07:04;28.50;26.40
13093;DHT22;6612;49.568;11.000;2023-05-28T09:09:33;28.40;26.80
13093;DHT22;6612;49.568;11.000;2023-05-28T09:12:03;28.30;27.10
13093;DHT22;6612;49.568;11.000;2023-05-28T09:14:31;28.20;27.00
13093;DHT22;6612;49.568;11.000;2023-05-28T09:17:03;28.20;27.10
13093;DHT22;6612;49.568;11.000;2023-05-28T09:19:32;28.20;27.40
13093;DHT22;6612;49.568;11.000;2023-05-28T09:21:59;28.20;27.40
13093;DHT22;6612;49.568;11.000;2023-05-28T09:24:28;28.10;27.40
13093;DHT22;6612;49.568;11.000;2023-05-28T09:26:56;28.10;27.60
13093;DHT22;6612;49.568;11.000;2023-05-28T09:29:25;28.10;27.70
13093;DHT22;6612;49.568;11.000;2023-05-28T09:31:56;28.10;27.80
13093;DHT22;6612;49.568;11.000;2023-05-28T09:34:26;28.10;27.70
13093;DHT22;6612;49.568;11.000;2023-05-28T09:36:59;28.10;27.80
13093;DHT22;6612;49.568;11.000;2023-05-28T09:39:27;28.20;28.00
13093;DHT22;6612;49.568;11.000;2023-05-28T09:42:00;28.20;28.00
13093;DHT22;6612;49.568;11.000;2023-05-28T09:44:32;28.20;28.00
13093;DHT22;6612;49.568;11.000;2023-05-28T09:46:59;28.20;27.90
13093;DHT22;6612;49.568;11.000;2023-05-28T09:49:28;28.20;27.60
13093;DHT22;6612;49.568;11.000;2023-05-28T09:51:58;28.20;27.40
13093;DHT22;6612;49.568;11.000;2023-05-28T09:54:29;28.10;27.30
13093;DHT22;6612;49.568;11.000;2023-05-28T09:57:02;28.10;27.20
13093;DHT22;6612;49.568;11.000;2023-05-28T09:59:31;28.10;27.50
13093;DHT22;6612;49.568;11.000;2023-05-28T10:02:00;28.00;27.30
13093;DHT22;6612;49.568;11.000;2023-05-28T10:04:33;28.00;26.90
13093;DHT22;6612;49.568;11.000;2023-05-28T10:07:03;28.00;26.50
13093;DHT22;6612;49.568;11.000;2023-05-28T10:09:32;27.90;26.40
13093;DHT22;6612;49.568;11.000;2023-05-28T10:12:08;27.80;26.30
13093;DHT22;6612;49.568;11.000;2023-05-28T10:14:37;27.80;25.90
13093;DHT22;6612;49.568;11.000;2023-05-28T10:17:05;27.70;26.10
13093;DHT22;6612;49.568;11.000;2023-05-28T10:19:34;27.60;26.10
13093;DHT22;6612;49.568;11.000;2023-05-28T10:22:02;27.50;26.10
13093;DHT22;6612;49.568;11.000;2023-05-28T10:24:30;27.50;25.90
13093;DHT22;6612;49.568;11.000;2023-05-28T10:26:58;27.50;25.90
13093;DHT22;6612;49.568;11.000;2023-05-28T10:29:25;27.50;26.10
13093;DHT22;6612;49.568;11.000;2023-05-28T10:31:59;27.50;26.00
13093;DHT22;6612;49.568;11.000;2023-05-28T10:34:30;27.50;26.00
13093;DHT22;6612;49.568;11.000;2023-05-28T10:37:02;27.50;26.10
13093;DHT22;6612;49.568;11.000;2023-05-28T10:39:37;27.50;26.20
13093;DHT22;6612;49.568;11.000;2023-05-28T10:42:05;27.60;26.20
13093;DHT22;6612;49.568;11.000;2023-05-28T10:44:48;27.60;26.10
13093;DHT22;6612;49.568;11.000;2023-05-28T10:47:15;27.60;25.80
13093;DHT22;6612;49.568;11.000;2023-05-28T10:49:58;27.60;26.10
13093;DHT22;6612;49.568;11.000;2023-05-28T10:52:27;27.60;26.10
13093;DHT22;6612;49.568;11.000;2023-05-28T10:54:54;27.60;26.60
13093;DHT22;6612;49.568;11.000;2023-05-28T10:57:21;27.70;26.70
13093;DHT22;6612;49.568;11.000;2023-05-28T10:59:49;27.80;27.20
13093;DHT22;6612;49.568;11.000;2023-05-28T11:02:18;28.10;27.00
13093;DHT22;6612;49.568;11.000;2023-05-28T11:04:46;28.30;26.80
13093;DHT22;6612;49.568;11.000;2023-05-28T11:07:17;28.40;26.40
13093;DHT22;6612;49.568;11.000;2023-05-28T11:09:48;28.50;26.40
13093;DHT22;6612;49.568;11.000;2023-05-28T11:12:19;28.40;26.30
13093;DHT22;6612;49.568;11.000;2023-05-28T11:14:48;28.40;26.30
13093;DHT22;6612;49.568;11.000;2023-05-28T11:17:15;28.40;26.20
13093;DHT22;6612;49.568;11.000;2023-05-28T11:19:43;28.30;26.40
13093;DHT22;6612;49.568;11.000;2023-05-28T11:22:11;28.20;26.20
13093;DHT22;6612;49.568;11.000;2023-05-28T11:25:03;28.20;26.10
13093;DHT22;6612;49.568;11.000;2023-05-28T11:27:31;28.20;25.70
13093;DHT22;6612;49.568;11.000;2023-05-28T11:30:02;28.10;26.10
13093;DHT22;6612;49.568;11.000;2023-05-28T11:32:32;28.00;26.20
13093;DHT22;6612;49.568;11.000;2023-05-28T11:34:59;27.90;26.20
13093;DHT22;6612;49.568;11.000;2023-05-28T11:37:27;27.90;26.10
13093;DHT22;6612;49.568;11.000;2023-05-28T11:39:56;27.80;26.10
13093;DHT22;6612;49.568;11.000;2023-05-28T11:42:26;27.80;26.00
13093;DHT22;6612;49.568;11.000;2023-05-28T11:44:53;27.70;26.30
13093;DHT22;6612;49.568;11.000;2023-05-28T11:47:21;27.60;26.30
13093;DHT22;6612;49.568;11.000;2023-05-28T11:49:48;27.60;26.30
13093;DHT22;6612;49.568;11.000;2023-05-28T11:52:18;27.60;26.40
13093;DHT22;6612;49.568;11.000;2023-05-28T11:54:46;27.60;26.50
13093;DHT22;6612;49.568;11.000;2023-05-28T11:57:20;27.70;26.70
13093;DHT22;6612;49.568;11.000;2023-05-28T11:59:58;27.70;26.40
13093;DHT22;6612;49.568;11.000;2023-05-28T12:02:25;27.70;26.30
13093;DHT22;6612;49.568;11.000;2023-05-28T12:04:55;27.70;26.10
13093;DHT22;6612;49.568;11.000;2023-05-28T12:07:22;27.70;26.20
13093;DHT22;6612;49.568;11.000;2023-05-28T12:10:00;27.70;26.20
13093;DHT22;6612;49.568;11.000;2023-05-28T12:12:28;27.70;26.20
13093;DHT22;6612;49.568;11.000;2023-05-28T12:14:58;27.70;26.20
13093;DHT22;6612;49.568;11.000;2023-05-28T12:17:25;27.60;26.20
13093;DHT22;6612;49.568;11.000;2023-05-28T12:19:52;27.60;26.00
13093;DHT22;6612;49.568;11.000;2023-05-28T12:22:19;27.60;26.00
13093;DHT22;6612;49.568;11.000;2023-05-28T12:24:50;27.60;26.10
13093;DHT22;6612;49.568;11.000;2023-05-28T12:27:19;27.60;25.90
13093;DHT22;6612;49.568;11.000;2023-05-28T12:29:46;27.60;25.80
13093;DHT22;6612;49.568;11.000;2023-05-28T12:32:14;27.60;26.00
13093;DHT22;6612;49.568;11.000;2023-05-28T12:34:41;27.50;25.80
13093;DHT22;6612;49.568;11.000;2023-05-28T12:37:09;27.50;25.70
13093;DHT22;6612;49.568;11.000;2023-05-28T12:39:37;27.50;26.20
13093;DHT22;6612;49.568;11.000;2023-05-28T12:42:06;27.50;26.10
13093;DHT22;6612;49.568;11.000;2023-05-28T12:44:33;27.60;26.10
13093;DHT22;6612;49.568;11.000;2023-05-28T12:47:00;27.60;25.90
13093;DHT22;6612;49.568;11.000;2023-05-28T12:49:29;27.60;25.90
13093;DHT22;6612;49.568;11.000;2023-05-28T12:51:56;27.60;26.00
13093;DHT22;6612;49.568;11.000;2023-05-28T12:54:23;27.60;26.00
13093;DHT22;6612;49.568;11.000;2023-05-28T12:56:50;27.60;25.70
13093;DHT22;6612;49.568;11.000;2023-05-28T12:59:20;27.60;25.70
13093;DHT22;6612;49.568;11.000;2023-05-28T13:01:48;27.60;25.60
13093;DHT22;6612;49.568;11.000;2023-05-28T13:04:15;27.50;25.70
13093;DHT22;6612;49.568;11.000;2023-05-28T13:06:44;27.50;25.90
13093;DHT22;6612;49.568;11.000;2023-05-28T13:09:12;27.50;25.80
13093;DHT22;6612;49.568;11.000;2023-05-28T13:11:39;27.50;25.80
13093;DHT22;6612;49.568;11.000;2023-05-28T13:14:06;27.50;26.00
13093;DHT22;6612;49.568;11.000;2023-05-28T13:16:34;27.50;25.90
13093;DHT22;6612;49.568;11.000;2023-05-28T13:19:01;27.50;25.80
13093;DHT22;6612;49.568;11.000;2023-05-28T13:21:29;27.50;25.60
13093;DHT22;6612;49.568;11.000;2023-05-28T13:23:59;27.40;25.80
13093;DHT22;6612;49.568;11.000;2023-05-28T13:26:27;27.40;25.90
13093;DHT22;6612;49.568;11.000;2023-05-28T13:28:54;27.40;26.00
13093;DHT22;6612;49.568;11.000;2023-05-28T13:31:21;27.50;26.20
13093;DHT22;6612;49.568;11.000;2023-05-28T13:33:48;27.50;26.10
13093;DHT22;6612;49.568;11.000;2023-05-28T13:36:15;27.50;26.10
13093;DHT22;6612;49.568;11.000;2023-05-28T13:38:42;27.50;26.10
13093;DHT22;6612;49.568;11.000;2023-05-28T13:41:12;27.50;26.10
13093;DHT22;6612;49.568;11.000;2023-05-28T13:43:39;27.60;26.00
13093;DHT22;6612;49.568;11.000;2023-05-28T13:46:06;27.60;26.10
13093;DHT22;6612;49.568;11.000;2023-05-28T13:48:34;27.60;26.20
13093;DHT22;6612;49.568;11.000;2023-05-28T13:51:02;27.60;26.00
13093;DHT22;6612;49.568;11.000;2023-05-28T13:53:31;27.60;25.80
13093;DHT22;6612;49.568;11.000;2023-05-28T13:55:58;27.60;25.90
13093;DHT22;6612;49.568;11.000;2023-05-28T13:58:26;27.60;25.60
13093;DHT22;6612;49.568;11.000;2023-05-28T14:00:53;27.60;25.70
13093;DHT22;6612;49.568;11.000;2023-05-28T14:03:20;27.50;25.70
13093;DHT22;6612;49.568;11.000;2023-05-28T14:05:48;27.60;25.90
13093;DHT22;6612;49.568;11.000;2023-05-28T14:08:15;27.60;26.20
13093;DHT22;6612;49.568;11.000;2023-05-28T14:10:42;27.60;26.20
13093;DHT22;6612;49.568;11.000;2023-05-28T14:13:09;27.60;26.00
13093;DHT22;6612;49.568;11.000;2023-05-28T14:15:37;27.60;25.80
13093;DHT22;6612;49.568;11.000;2023-05-28T14:18:04;27.60;26.20
13093;DHT22;6612;49.568;11.000;2023-05-28T14:20:32;27.60;26.20
13093;DHT22;6612;49.568;11.000;2023-05-28T14:23:00;27.60;26.10
13093;DHT22;6612;49.568;11.000;2023-05-28T14:25:28;27.60;26.00
13093;DHT22;6612;49.568;11.000;2023-05-28T14:27:55;27.60;26.60
13093;DHT22;6612;49.568;11.000;2023-05-28T14:30:22;27.60;25.90
13093;DHT22;6612;49.568;11.000;2023-05-28T14:32:51;27.60;25.90
13093;DHT22;6612;49.568;11.000;2023-05-28T14:35:18;27.60;25.70
13093;DHT22;6612;49.568;11.000;2023-05-28T14:37:46;27.60;25.80
13093;DHT22;6612;49.568;11.000;2023-05-28T14:40:16;27.60;25.70
13093;DHT22;6612;49.568;11.000;2023-05-28T14:42:43;27.60;25.80
13093;DHT22;6612;49.568;11.000;2023-05-28T14:45:10;27.60;25.80
13093;DHT22;6612;49.568;11.000;2023-05-28T14:47:37;27.60;25.80
13093;DHT22;6612;49.568;11.000;2023-05-28T14:50:08;27.60;25.70
13093;DHT22;6612;49.568;11.000;2023-05-28T14:52:35;27.60;25.70
13093;DHT22;6612;49.568;11.000;2023-05-28T14:55:02;27.60;25.60
13093;DHT22;6612;49.568;11.000;2023-05-28T14:57:30;27.60;25.60
13093;DHT22;6612;49.568;11.000;2023-05-28T15:00:00;27.60;25.70
13093;DHT22;6612;49.568;11.000;2023-05-28T15:02:29;27.60;25.80
13093;DHT22;6612;49.568;11.000;2023-05-28T15:04:56;27.60;25.80
13093;DHT22;6612;49.568;11.000;2023-05-28T15:07:25;27.50;25.70
13093;DHT22;6612;49.568;11.000;2023-05-28T15:09:52;27.50;26.00
13093;DHT22;6612;49.568;11.000;2023-05-28T15:12:19;27.50;25.50
13093;DHT22;6612;49.568;11.000;2023-05-28T15:14:46;27.50;25.40
13093;DHT22;6612;49.568;11.000;2023-05-28T15:17:13;27.50;25.40
13093;DHT22;6612;49.568;11.000;2023-05-28T15:19:40;27.50;25.60
13093;DHT22;6612;49.568;11.000;2023-05-28T15:22:07;27.50;25.50
13093;DHT22;6612;49.568;11.000;2023-05-28T15:24:36;27.50;25.50
13093;DHT22;6612;49.568;11.000;2023-05-28T15:27:03;27.50;25.50
13093;DHT22;6612;49.568;11.000;2023-05-28T15:29:32;27.50;25.70
13093;DHT22;6612;49.568;11.000;2023-05-28T15:32:00;27.50;25.60
13093;DHT22;6612;49.568;11.000;2023-05-28T15:34:29;27.50;25.70
13093;DHT22;6612;49.568;11.000;2023-05-28T15:36:57;27.50;25.60
13093;DHT22;6612;49.568;11.000;2023-05-28T15:39:24;27.50;25.60
13093;DHT22;6612;49.568;11.000;2023-05-28T15:41:55;27.50;25.50
13093;DHT22;6612;49.568;11.000;2023-05-28T15:44:22;27.50;25.60
13093;DHT22;6612;49.568;11.000;2023-05-28T15:46:49;27.50;25.50
13093;DHT22;6612;49.568;11.000;2023-05-28T15:49:17;27.50;25.60
13093;DHT22;6612;49.568;11.000;2023-05-28T15:51:44;27.50;25.40
13093;DHT22;6612;49.568;11.000;2023-05-28T15:54:11;27.50;25.10
13093;DHT22;6612;49.568;11.000;2023-05-28T15:56:39;27.50;25.20
13093;DHT22;6612;49.568;11.000;2023-05-28T15:59:08;27.50;25.20
13093;DHT22;6612;49.568;11.000;2023-05-28T16:01:36;27.40;25.00
13093;DHT22;6612;49.568;11.000;2023-05-28T16:04:07;27.40;25.30
13093;DHT22;6612;49.568;11.000;2023-05-28T16:06:34;27.40;25.10
13093;DHT22;6612;49.568;11.000;2023-05-28T16:09:02;27.40;25.00
13093;DHT22;6612;49.568;11.000;2023-05-28T16:11:29;27.40;25.10
13093;DHT22;6612;49.568;11.000;2023-05-28T16:13:57;27.40;25.10
13093;DHT22;6612;49.568;11.000;2023-05-28T16:16:25;27.40;25.10
13093;DHT22;6612;49.568;11.000;2023-05-28T16:18:53;27.40;25.10
13093;DHT22;6612;49.568;11.000;2023-05-28T16:21:21;27.40;25.20
13093;DHT22;6612;49.568;11.000;2023-05-28T16:23:48;27.30;25.10
13093;DHT22;6612;49.568;11.000;2023-05-28T16:26:15;27.30;25.10
13093;DHT22;6612;49.568;11.000;2023-05-28T16:28:43;27.30;25.10
13093;DHT22;6612;49.568;11.000;2023-05-28T16:31:10;27.30;25.20
13093;DHT22;6612;49.568;11.000;2023-05-28T16:33:39;27.20;25.10
13093;DHT22;6612;49.568;11.000;2023-05-28T16:36:07;27.20;25.10
13093;DHT22;6612;49.568;11.000;2023-05-28T16:38:36;27.20;25.20
13093;DHT22;6612;49.568;11.000;2023-05-28T16:41:04;27.20;25.30
13093;DHT22;6612;49.568;11.000;2023-05-28T16:43:31;27.20;25.40
13093;DHT22;6612;49.568;11.000;2023-05-28T16:45:58;27.10;25.30
13093;DHT22;6612;49.568;11.000;2023-05-28T16:48:26;27.10;25.30
13093;DHT22;6612;49.568;11.000;2023-05-28T16:50:55;27.10;25.50
13093;DHT22;6612;49.568;11.000;2023-05-28T16:53:24;27.10;25.30
13093;DHT22;6612;49.568;11.000;2023-05-28T16:55:53;27.10;25.30
13093;DHT22;6612;49.568;11.000;2023-05-28T16:58:20;27.10;25.40
13093;DHT22;6612;49.568;11.000;2023-05-28T17:00:47;27.10;25.30
13093;DHT22;6612;49.568;11.000;2023-05-28T17:03:14;27.10;25.40
13093;DHT22;6612;49.568;11.000;2023-05-28T17:05:41;27.10;25.50